createdAt,value
2019-02-04T00:01:45.247Z,-0.10
2019-02-04T00:04:13.086Z,-0.20
2019-02-04T00:06:40.956Z,-0.20
2019-02-04T00:09:09.162Z,-0.20
2019-02-04T00:11:37.023Z,-0.20
2019-02-04T00:14:04.805Z,-0.20
2019-02-04T00:16:40.680Z,-0.20
2019-02-04T00:19:02.268Z,-0.20
2019-02-04T00:21:30.069Z,-0.20
2019-02-04T00:23:57.952Z,-0.30
2019-02-04T00:26:25.858Z,-0.30
2019-02-04T00:28:54.096Z,-0.30
2019-02-04T00:31:22.118Z,-0.30
2019-02-04T00:33:49.960Z,-0.30
2019-02-04T00:36:17.803Z,-0.40
2019-02-04T00:38:45.879Z,-0.40
2019-02-04T00:41:13.748Z,-0.40
2019-02-04T00:43:41.673Z,-0.30
2019-02-04T00:46:09.584Z,-0.30
2019-02-04T00:48:37.809Z,-0.40
2019-02-04T00:51:05.725Z,-0.40
2019-02-04T00:53:33.616Z,-0.50
2019-02-04T00:56:01.455Z,-0.50
2019-02-04T00:58:29.684Z,-0.50
2019-02-04T01:00:57.464Z,-0.50
2019-02-04T01:03:25.645Z,-0.50
2019-02-04T01:05:53.614Z,-0.50
2019-02-04T01:08:21.435Z,-0.50
2019-02-04T01:10:49.532Z,-0.50
2019-02-04T01:13:17.409Z,-0.50
2019-02-04T01:15:45.288Z,-0.50
2019-02-04T01:18:13.095Z,-0.50
2019-02-04T01:20:40.880Z,-0.40
2019-02-04T01:23:08.662Z,-0.40
2019-02-04T01:25:36.501Z,-0.40
2019-02-04T01:28:04.361Z,-0.40
2019-02-04T01:30:32.293Z,-0.40
2019-02-04T01:33:00.199Z,-0.40
2019-02-04T01:35:28.450Z,-0.40
2019-02-04T01:37:56.344Z,-0.40
2019-02-04T01:40:25.184Z,-0.40
2019-02-04T01:42:53.342Z,-0.40
2019-02-04T01:45:23.045Z,-0.50
2019-02-04T01:47:50.864Z,-0.40
2019-02-04T01:50:20.218Z,-0.40
2019-02-04T01:52:48.064Z,-0.40
2019-02-04T01:55:15.864Z,-0.40
2019-02-04T01:57:44.038Z,-0.40
2019-02-04T02:00:13.604Z,-0.40
2019-02-04T02:02:41.464Z,-0.50
2019-02-04T02:05:09.796Z,-0.50
2019-02-04T02:07:37.616Z,-0.50
2019-02-04T02:10:05.692Z,-0.50
2019-02-04T02:12:33.551Z,-0.50
2019-02-04T02:15:01.335Z,-0.50
2019-02-04T02:17:29.190Z,-0.50
2019-02-04T02:19:57.040Z,-0.60
2019-02-04T02:22:25.019Z,-0.60
2019-02-04T02:24:52.804Z,-0.60
2019-02-04T02:27:20.630Z,-0.60
2019-02-04T02:29:48.533Z,-0.70
2019-02-04T02:32:16.340Z,-0.70
2019-02-04T02:34:44.155Z,-0.80
2019-02-04T02:37:12.414Z,-0.80
2019-02-04T02:39:40.308Z,-0.80
2019-02-04T02:42:08.266Z,-0.90
2019-02-04T02:44:36.067Z,-0.90
2019-02-04T02:47:03.959Z,-0.70
2019-02-04T02:49:31.950Z,-0.60
2019-02-04T02:51:59.740Z,-0.50
2019-02-04T02:54:27.898Z,-0.50
2019-02-04T02:56:55.820Z,-0.50
2019-02-04T02:59:23.630Z,-0.50
2019-02-04T03:01:51.494Z,-0.50
2019-02-04T03:04:19.375Z,-0.40
2019-02-04T03:06:47.153Z,-0.40
2019-02-04T03:09:14.947Z,-0.40
2019-02-04T03:11:42.776Z,-0.40
2019-02-04T03:14:10.642Z,-0.50
2019-02-04T03:16:38.488Z,-0.50
2019-02-04T03:19:06.374Z,-0.50
2019-02-04T03:21:34.399Z,-0.50
2019-02-04T03:24:02.191Z,-0.50
2019-02-04T03:26:30.347Z,-0.50
2019-02-04T03:28:58.154Z,-0.50
2019-02-04T03:31:26.084Z,-0.50
2019-02-04T03:33:53.875Z,-0.40
2019-02-04T03:36:21.663Z,-0.50
2019-02-04T03:38:49.519Z,-0.50
2019-02-04T03:41:17.310Z,-0.50
2019-02-04T03:43:45.378Z,-0.50
2019-02-04T03:46:13.163Z,-0.50
2019-02-04T03:48:40.986Z,-0.50
2019-02-04T03:51:08.769Z,-0.40
2019-02-04T03:53:36.603Z,-0.40
2019-02-04T03:56:04.527Z,-0.40
2019-02-04T03:58:32.848Z,-0.40
2019-02-04T04:01:00.739Z,-0.40
2019-02-04T04:03:28.531Z,-0.40
2019-02-04T04:05:56.375Z,-0.40
2019-02-04T04:08:24.167Z,-0.30
2019-02-04T04:10:51.999Z,-0.40
2019-02-04T04:13:19.847Z,-0.40
2019-02-04T04:15:47.708Z,-0.50
2019-02-04T04:18:16.330Z,-0.40
2019-02-04T04:20:44.288Z,-0.40
2019-02-04T04:23:12.072Z,-0.40
2019-02-04T04:25:39.927Z,-0.40
2019-02-04T04:28:07.772Z,-0.30
2019-02-04T04:30:35.963Z,-0.30
2019-02-04T04:33:03.978Z,-0.20
2019-02-04T04:35:31.800Z,-0.20
2019-02-04T04:37:59.652Z,-0.20
2019-02-04T04:40:27.611Z,-0.20
2019-02-04T04:42:55.386Z,-0.20
2019-02-04T04:45:23.798Z,-0.10
2019-02-04T04:47:52.221Z,-0.10
2019-02-04T04:50:20.251Z,0.00
2019-02-04T04:52:48.455Z,0.00
2019-02-04T04:55:17.622Z,0.00
2019-02-04T04:57:45.743Z,-0.10
2019-02-04T05:00:16.024Z,-0.10
2019-02-04T05:02:44.206Z,-0.20
2019-02-04T05:05:12.367Z,-0.20
2019-02-04T05:07:40.152Z,-0.30
2019-02-04T05:10:09.172Z,-0.40
2019-02-04T05:12:37.063Z,-0.50
2019-02-04T05:15:05.399Z,-0.50
2019-02-04T05:17:33.681Z,-0.60
2019-02-04T05:20:01.499Z,-0.60
2019-02-04T05:22:29.515Z,-0.70
2019-02-04T05:24:57.344Z,-0.60
2019-02-04T05:27:25.123Z,-0.70
2019-02-04T05:29:52.996Z,-0.80
2019-02-04T05:32:20.846Z,-0.90
2019-02-04T05:34:48.647Z,-0.90
2019-02-04T05:37:16.447Z,-0.90
2019-02-04T05:39:44.346Z,-0.90
2019-02-04T05:42:12.183Z,-0.90
2019-02-04T05:44:40.054Z,-0.90
2019-02-04T05:47:07.847Z,-0.90
2019-02-04T05:49:36.046Z,-0.90
2019-02-04T05:52:03.951Z,-0.90
2019-02-04T05:54:31.731Z,-1.00
2019-02-04T05:56:59.525Z,-1.00
2019-02-04T05:59:27.354Z,-1.00
2019-02-04T06:01:55.150Z,-0.90
2019-02-04T06:04:23.004Z,-1.00
2019-02-04T06:06:51.179Z,-1.00
2019-02-04T06:09:19.072Z,-1.00
2019-02-04T06:11:46.910Z,-1.00
2019-02-04T06:14:14.936Z,-1.00
2019-02-04T06:16:42.771Z,-1.00
2019-02-04T06:19:10.782Z,-1.00
2019-02-04T06:21:38.582Z,-1.00
2019-02-04T06:24:06.368Z,-1.00
2019-02-04T06:26:34.163Z,-1.00
2019-02-04T06:29:01.968Z,-1.00
2019-02-04T06:31:29.865Z,-1.00
2019-02-04T06:33:57.752Z,-1.10
2019-02-04T06:36:25.590Z,-1.10
2019-02-04T06:38:53.876Z,-1.10
2019-02-04T06:41:22.287Z,-1.20
2019-02-04T06:43:50.123Z,-1.20
2019-02-04T06:46:17.971Z,-1.20
2019-02-04T06:48:45.746Z,-1.10
2019-02-04T06:51:13.687Z,-1.00
2019-02-04T06:53:41.545Z,-0.90
2019-02-04T06:56:09.551Z,-0.80
2019-02-04T06:58:37.767Z,-0.70
2019-02-04T07:01:05.594Z,-0.60
2019-02-04T07:03:33.385Z,-0.60
2019-02-04T07:06:01.235Z,-0.50
2019-02-04T07:08:29.012Z,-0.40
2019-02-04T07:10:56.938Z,-0.40
2019-02-04T07:13:24.726Z,-0.40
2019-02-04T07:15:52.555Z,-0.30
2019-02-04T07:18:20.335Z,-0.30
2019-02-04T07:20:48.263Z,-0.30
2019-02-04T07:23:16.043Z,-0.20
2019-02-04T07:25:43.831Z,-0.20
2019-02-04T07:28:11.726Z,-0.20
2019-02-04T07:30:39.581Z,-0.20
2019-02-04T07:33:07.459Z,-0.20
2019-02-04T07:35:35.235Z,-0.10
2019-02-04T07:38:03.031Z,0.00
2019-02-04T07:40:31.380Z,-0.10
2019-02-04T07:42:59.257Z,0.00
2019-02-04T07:45:27.113Z,0.00
2019-02-04T07:47:55.046Z,0.00
2019-02-04T07:50:23.100Z,0.00
2019-02-04T07:52:50.983Z,0.00
2019-02-04T07:55:18.952Z,0.00
2019-02-04T07:57:47.080Z,0.20
2019-02-04T08:00:16.278Z,0.20
2019-02-04T08:02:44.448Z,0.30
2019-02-04T08:05:13.392Z,0.40
2019-02-04T08:07:42.216Z,0.50
2019-02-04T08:10:10.699Z,0.60
2019-02-04T08:12:38.562Z,0.70
2019-02-04T08:15:07.986Z,0.80
2019-02-04T08:17:36.355Z,0.80
2019-02-04T08:20:04.887Z,0.80
2019-02-04T08:22:32.695Z,1.00
2019-02-04T08:25:00.467Z,1.00
2019-02-04T08:27:28.271Z,1.10
2019-02-04T08:29:56.076Z,1.20
2019-02-04T08:32:23.871Z,1.30
2019-02-04T08:34:52.404Z,1.40
2019-02-04T08:37:20.402Z,1.50
2019-02-04T08:39:48.265Z,1.60
2019-02-04T08:42:16.063Z,1.60
2019-02-04T08:44:43.887Z,1.60
2019-02-04T08:47:22.351Z,1.70
2019-02-04T08:49:41.203Z,1.70
2019-02-04T08:52:09.279Z,1.80
2019-02-04T08:54:37.362Z,1.90
2019-02-04T08:57:05.151Z,2.00
2019-02-04T08:59:32.929Z,2.00
2019-02-04T09:02:00.703Z,2.10
2019-02-04T09:06:56.028Z,2.40
2019-02-04T09:09:24.124Z,2.40
2019-02-04T09:11:51.963Z,2.40
2019-02-04T09:14:19.767Z,2.50
2019-02-04T09:16:47.599Z,2.60
2019-02-04T09:19:15.459Z,2.60
2019-02-04T09:21:43.244Z,2.70
2019-02-04T09:24:11.109Z,2.70
2019-02-04T09:26:39.158Z,2.80
2019-02-04T09:29:06.951Z,2.90
2019-02-04T09:31:34.885Z,2.90
2019-02-04T09:34:02.984Z,3.00
2019-02-04T09:36:30.766Z,3.10
2019-02-04T09:38:58.567Z,3.10
2019-02-04T09:41:26.607Z,3.20
2019-02-04T09:43:54.746Z,3.20
2019-02-04T09:46:22.721Z,3.30
2019-02-04T09:48:50.587Z,3.40
2019-02-04T09:51:18.391Z,3.50
2019-02-04T09:53:46.263Z,3.60
2019-02-04T09:56:14.059Z,3.70
2019-02-04T09:58:41.834Z,3.70
2019-02-04T10:01:10.151Z,3.70
2019-02-04T10:03:37.943Z,3.80
2019-02-04T10:06:05.973Z,3.80
2019-02-04T10:08:33.836Z,3.80
2019-02-04T10:11:01.721Z,3.80
2019-02-04T10:13:29.494Z,3.90
2019-02-04T10:15:57.381Z,4.00
2019-02-04T10:18:25.158Z,4.00
2019-02-04T10:20:52.987Z,4.00
2019-02-04T10:23:20.827Z,4.10
2019-02-04T10:25:48.697Z,4.10
2019-02-04T10:28:16.592Z,4.20
2019-02-04T10:30:44.766Z,4.10
2019-02-04T10:33:13.127Z,4.20
2019-02-04T10:35:41.358Z,4.20
2019-02-04T10:38:09.282Z,4.30
2019-02-04T10:40:37.178Z,4.30
2019-02-04T10:43:05.317Z,4.40
2019-02-04T10:45:33.182Z,4.40
2019-02-04T10:48:01.178Z,4.40
2019-02-04T10:50:30.220Z,4.40
2019-02-04T10:52:58.174Z,4.50
2019-02-04T10:55:26.080Z,4.60
2019-02-04T10:57:54.017Z,4.70
2019-02-04T11:00:23.349Z,4.70
2019-02-04T11:02:51.138Z,4.70
2019-02-04T11:05:20.758Z,4.70
2019-02-04T11:07:48.823Z,4.80
2019-02-04T11:10:17.449Z,4.80
2019-02-04T11:12:45.339Z,4.90
2019-02-04T11:15:13.751Z,5.00
2019-02-04T11:17:41.747Z,4.90
2019-02-04T11:20:17.400Z,5.00
2019-02-04T11:22:45.227Z,4.90
2019-02-04T11:25:13.306Z,5.00
2019-02-04T11:27:41.441Z,5.10
2019-02-04T11:30:13.383Z,5.20
2019-02-04T11:32:41.485Z,5.20
2019-02-04T11:35:09.873Z,5.20
2019-02-04T11:37:37.778Z,5.30
2019-02-04T11:40:05.900Z,5.20
2019-02-04T11:42:33.815Z,5.30
2019-02-04T11:45:01.760Z,5.30
2019-02-04T11:47:29.834Z,5.30
2019-02-04T11:49:57.812Z,5.40
2019-02-04T11:52:25.600Z,5.50
2019-02-04T11:54:53.387Z,5.50
2019-02-04T11:57:21.203Z,5.50
2019-02-04T11:59:49.054Z,5.50
2019-02-04T12:02:16.931Z,5.60
2019-02-04T12:04:44.787Z,5.60
2019-02-04T12:07:13.005Z,5.60
2019-02-04T12:09:40.839Z,5.70
2019-02-04T12:12:08.800Z,5.80
2019-02-04T12:14:36.583Z,5.90
2019-02-04T12:17:04.438Z,6.00
2019-02-04T12:19:32.438Z,6.00
2019-02-04T12:22:02.728Z,6.20
2019-02-04T12:24:30.095Z,6.30
2019-02-04T12:26:57.887Z,6.60
2019-02-04T12:29:25.793Z,6.70
2019-02-04T12:31:53.796Z,6.80
2019-02-04T12:34:21.594Z,6.90
2019-02-04T12:36:49.531Z,7.00
2019-02-04T12:39:20.468Z,7.00
2019-02-04T12:41:50.600Z,7.10
2019-02-04T12:44:18.056Z,7.10
2019-02-04T12:46:45.827Z,6.90
2019-02-04T12:49:13.971Z,6.80
2019-02-04T12:51:41.835Z,6.80
2019-02-04T12:54:09.743Z,6.80
2019-02-04T12:56:38.608Z,6.80
2019-02-04T12:59:06.583Z,6.80
2019-02-04T13:01:34.449Z,6.80
2019-02-04T13:04:02.411Z,6.70
2019-02-04T13:06:30.283Z,6.60
2019-02-04T13:08:58.192Z,6.60
2019-02-04T13:11:26.118Z,6.60
2019-02-04T13:13:54.327Z,6.40
2019-02-04T13:16:22.163Z,6.50
2019-02-04T13:18:50.047Z,6.30
2019-02-04T13:21:17.984Z,6.30
2019-02-04T13:23:45.899Z,6.20
2019-02-04T13:26:13.732Z,6.20
2019-02-04T13:28:42.052Z,6.20
2019-02-04T13:31:10.138Z,6.20
2019-02-04T13:33:38.321Z,6.10
2019-02-04T13:36:06.206Z,6.10
2019-02-04T13:38:34.049Z,6.10
2019-02-04T13:41:08.351Z,6.10
2019-02-04T13:43:31.407Z,6.00
2019-02-04T13:45:59.699Z,6.00
2019-02-04T13:48:27.551Z,5.90
2019-02-04T13:50:55.330Z,5.90
2019-02-04T13:53:23.439Z,5.90
2019-02-04T13:55:51.216Z,5.80
2019-02-04T13:58:21.647Z,5.80
2019-02-04T14:00:48.612Z,5.80
2019-02-04T14:03:17.753Z,5.80
2019-02-04T14:05:45.867Z,5.80
2019-02-04T14:08:13.635Z,5.80
2019-02-04T14:10:42.226Z,5.80
2019-02-04T14:13:10.249Z,5.70
2019-02-04T14:15:38.747Z,5.70
2019-02-04T14:18:06.862Z,5.70
2019-02-04T14:20:34.696Z,5.70
2019-02-04T14:23:02.579Z,5.60
2019-02-04T14:25:30.528Z,5.50
2019-02-04T14:27:58.307Z,5.50
2019-02-04T14:30:27.296Z,5.50
2019-02-04T14:32:55.455Z,5.50
2019-02-04T14:35:23.440Z,5.50
2019-02-04T14:37:52.046Z,5.50
2019-02-04T14:40:19.947Z,5.40
2019-02-04T14:42:49.195Z,5.40
2019-02-04T14:45:23.408Z,5.30
2019-02-04T14:48:04.061Z,5.30
2019-02-04T14:50:42.988Z,5.30
2019-02-04T14:53:33.210Z,5.30
2019-02-04T14:56:23.693Z,5.30
2019-02-04T14:58:57.055Z,5.20
2019-02-04T15:01:38.873Z,5.20
2019-02-04T15:04:13.175Z,5.20
2019-02-04T15:07:01.131Z,5.10
2019-02-04T15:09:51.156Z,5.10
2019-02-04T15:12:50.678Z,5.00
2019-02-04T15:15:37.818Z,4.90
2019-02-04T15:18:17.652Z,4.80
2019-02-04T15:20:55.563Z,4.70
2019-02-04T15:23:51.976Z,4.60
2019-02-04T15:26:38.067Z,4.60
2019-02-04T15:29:25.185Z,4.50
2019-02-04T15:32:21.685Z,4.40
2019-02-04T15:35:04.173Z,4.30
2019-02-04T15:37:41.514Z,4.20
2019-02-04T15:40:28.948Z,4.20
2019-02-04T15:43:14.603Z,4.10
2019-02-04T15:45:45.331Z,4.00
2019-02-04T15:48:15.726Z,3.90
2019-02-04T15:51:02.874Z,3.80
2019-02-04T15:53:30.736Z,3.70
2019-02-04T15:55:59.115Z,3.60
2019-02-04T15:58:27.392Z,3.50
2019-02-04T16:00:55.316Z,3.40
2019-02-04T16:03:23.166Z,3.40
2019-02-04T16:05:51.012Z,3.30
2019-02-04T16:08:18.818Z,3.20
2019-02-04T16:10:46.652Z,3.20
2019-02-04T16:13:14.731Z,3.10
2019-02-04T16:15:42.976Z,3.00
2019-02-04T16:18:10.889Z,3.00
2019-02-04T16:20:38.663Z,2.90
2019-02-04T16:23:07.010Z,2.80
2019-02-04T16:25:34.946Z,2.70
2019-02-04T16:28:03.077Z,2.70
2019-02-04T16:30:30.913Z,2.60
2019-02-04T16:32:58.735Z,2.60
2019-02-04T16:35:26.626Z,2.60
2019-02-04T16:37:54.643Z,2.50
2019-02-04T16:40:22.586Z,2.50
2019-02-04T16:42:50.399Z,2.40
2019-02-04T16:45:18.876Z,2.40
2019-02-04T16:47:47.103Z,2.30
2019-02-04T16:50:17.039Z,2.30
2019-02-04T16:52:48.033Z,2.20
2019-02-04T16:55:14.572Z,2.20
2019-02-04T16:57:42.395Z,2.20
2019-02-04T17:00:11.790Z,2.20
2019-02-04T17:02:39.629Z,2.20
2019-02-04T17:05:08.655Z,2.10
2019-02-04T17:07:36.479Z,2.10
2019-02-04T17:10:05.932Z,2.10
2019-02-04T17:12:33.815Z,2.10
2019-02-04T17:15:01.582Z,2.00
2019-02-04T17:17:29.384Z,2.00
2019-02-04T17:19:57.572Z,2.10
2019-02-04T17:22:25.443Z,2.10
2019-02-04T17:24:53.303Z,2.00
2019-02-04T17:27:21.199Z,2.00
2019-02-04T17:29:49.163Z,2.00
2019-02-04T17:32:17.062Z,1.90
2019-02-04T17:34:45.146Z,1.90
2019-02-04T17:37:13.299Z,1.90
2019-02-04T17:39:41.235Z,1.80
2019-02-04T17:42:09.286Z,1.80
2019-02-04T17:44:37.172Z,1.80
2019-02-04T17:47:05.154Z,1.80
2019-02-04T17:49:33.132Z,1.80
2019-02-04T17:52:01.021Z,1.80
2019-02-04T17:54:30.032Z,1.80
2019-02-04T17:56:57.835Z,1.70
2019-02-04T17:59:26.407Z,1.70
2019-02-04T18:01:54.306Z,1.70
2019-02-04T18:04:22.223Z,1.70
2019-02-04T18:06:50.414Z,1.70
2019-02-04T18:09:18.660Z,1.60
2019-02-04T18:11:47.123Z,1.60
2019-02-04T18:14:15.105Z,1.60
2019-02-04T18:16:43.012Z,1.60
2019-02-04T18:19:10.871Z,1.60
2019-02-04T18:21:38.680Z,1.60
2019-02-04T18:24:06.591Z,1.60
2019-02-04T18:26:34.514Z,1.60
2019-02-04T18:29:02.608Z,1.60
2019-02-04T18:31:30.479Z,1.70
2019-02-04T18:34:00.228Z,1.60
2019-02-04T18:36:28.023Z,1.60
2019-02-04T18:39:00.588Z,1.60
2019-02-04T18:41:28.690Z,1.60
2019-02-04T18:43:56.711Z,1.60
2019-02-04T18:46:24.817Z,1.60
2019-02-04T18:48:52.730Z,1.70
2019-02-04T18:51:20.906Z,1.70
2019-02-04T18:53:57.375Z,1.70
2019-02-04T18:56:18.452Z,1.60
2019-02-04T18:58:46.351Z,1.60
2019-02-04T19:01:14.178Z,1.60
2019-02-04T19:03:42.095Z,1.60
2019-02-04T19:06:10.483Z,1.60
2019-02-04T19:08:38.413Z,1.60
2019-02-04T19:11:06.599Z,1.60
2019-02-04T19:13:36.292Z,1.60
2019-02-04T19:16:04.347Z,1.60
2019-02-04T19:18:32.275Z,1.60
2019-02-04T19:21:00.510Z,1.50
2019-02-04T19:23:28.732Z,1.50
2019-02-04T19:25:56.983Z,1.50
2019-02-04T19:28:24.863Z,1.50
2019-02-04T19:30:58.007Z,1.50
2019-02-04T19:33:26.132Z,1.50
2019-02-04T19:35:54.271Z,1.50
2019-02-04T19:38:22.117Z,1.40
2019-02-04T19:40:50.033Z,1.40
2019-02-04T19:43:18.074Z,1.40
2019-02-04T19:45:46.053Z,1.40
2019-02-04T19:48:14.034Z,1.30
2019-02-04T19:50:42.400Z,1.40
2019-02-04T19:53:10.316Z,1.40
2019-02-04T19:55:38.258Z,1.40
2019-02-04T19:58:06.413Z,1.30
2019-02-04T20:00:34.475Z,1.30
2019-02-04T20:03:02.430Z,1.30
2019-02-04T20:05:30.258Z,1.30
2019-02-04T20:07:58.039Z,1.30
2019-02-04T20:10:26.740Z,1.30
2019-02-04T20:12:55.399Z,1.20
2019-02-04T20:15:24.846Z,1.20
2019-02-04T20:17:52.712Z,1.20
2019-02-04T20:20:20.684Z,1.20
2019-02-04T20:22:48.558Z,1.20
2019-02-04T20:25:18.303Z,1.20
2019-02-04T20:27:46.592Z,1.20
2019-02-04T20:30:16.231Z,1.20
2019-02-04T20:32:44.387Z,1.20
2019-02-04T20:35:12.532Z,1.20
2019-02-04T20:37:40.363Z,1.20
2019-02-04T20:40:09.007Z,1.20
2019-02-04T20:42:36.807Z,1.20
2019-02-04T20:45:05.463Z,1.20
2019-02-04T20:47:33.358Z,1.20
2019-02-04T20:50:01.270Z,1.20
2019-02-04T20:52:29.133Z,1.20
2019-02-04T20:54:57.948Z,1.20
2019-02-04T20:57:25.819Z,1.20
2019-02-04T20:59:53.687Z,1.20
2019-02-04T21:02:21.486Z,1.10
2019-02-04T21:04:49.755Z,1.10
2019-02-04T21:07:17.630Z,1.10
2019-02-04T21:09:45.508Z,1.10
2019-02-04T21:12:13.491Z,1.10
2019-02-04T21:14:41.340Z,1.10
2019-02-04T21:17:09.284Z,1.10
2019-02-04T21:19:37.195Z,1.10
2019-02-04T21:22:05.529Z,1.10
2019-02-04T21:24:33.447Z,1.10
2019-02-04T21:27:01.333Z,1.10
2019-02-04T21:29:29.428Z,1.10
2019-02-04T21:31:57.270Z,1.20
2019-02-04T21:34:25.103Z,1.20
2019-02-04T21:36:53.009Z,1.20
2019-02-04T21:39:21.133Z,1.20
2019-02-04T21:41:49.099Z,1.20
2019-02-04T21:44:17.404Z,1.20
2019-02-04T21:46:45.290Z,1.20
2019-02-04T21:49:13.111Z,1.20
2019-02-04T21:51:40.944Z,1.20
2019-02-04T21:54:08.710Z,1.10
2019-02-04T21:56:36.548Z,1.10
2019-02-04T21:59:04.551Z,1.10
2019-02-04T22:01:38.030Z,1.10
2019-02-04T22:04:05.961Z,1.10
2019-02-04T22:06:33.851Z,1.10
2019-02-04T22:09:01.708Z,1.10
2019-02-04T22:11:29.590Z,1.10
2019-02-04T22:13:57.741Z,1.20
2019-02-04T22:16:25.717Z,1.20
2019-02-04T22:18:53.705Z,1.20
2019-02-04T22:21:21.746Z,1.20
2019-02-04T22:23:49.619Z,1.20
2019-02-04T22:26:17.836Z,1.20
2019-02-04T22:28:45.623Z,1.20
2019-02-04T22:31:13.441Z,1.10
2019-02-04T22:33:41.295Z,1.10
2019-02-04T22:36:09.200Z,1.10
2019-02-04T22:38:37.171Z,1.10
2019-02-04T22:41:05.078Z,1.10
2019-02-04T22:43:32.856Z,1.10
2019-02-04T22:46:00.982Z,1.10
2019-02-04T22:48:28.791Z,1.00
2019-02-04T22:50:57.033Z,1.00
2019-02-04T22:53:24.811Z,1.00
2019-02-04T22:55:52.626Z,1.00
2019-02-04T22:58:20.467Z,1.00
2019-02-04T23:01:11.260Z,1.00
2019-02-04T23:03:39.212Z,1.00
2019-02-04T23:06:07.048Z,1.00
2019-02-04T23:08:34.866Z,1.00
2019-02-04T23:11:02.663Z,1.00
2019-02-04T23:13:30.456Z,1.00
2019-02-04T23:15:58.294Z,1.00
2019-02-04T23:18:26.139Z,1.00
2019-02-04T23:20:54.290Z,0.90
2019-02-04T23:23:22.195Z,0.90
2019-02-04T23:25:50.050Z,0.80
2019-02-04T23:28:17.925Z,0.70
2019-02-04T23:41:24.588Z,0.50
2019-02-04T23:43:52.503Z,0.50
2019-02-04T23:46:20.660Z,0.50
2019-02-04T23:48:48.430Z,0.60
2019-02-04T23:51:16.242Z,0.60
2019-02-04T23:53:44.570Z,0.60
2019-02-04T23:56:12.438Z,0.60
2019-02-04T23:58:40.247Z,0.60
